Time;durP1;ratioP1;P1;durP2;ratioP2;P2;SDS_P1;SDS_P2;PMS_P1;PMS_P2;Temp;Humidity;BMP_temperature;BMP_pressure;BME280_temperature;BME280_humidity;BME280_pressure;Samples;Min_cycle;Max_cycle;Signal;HPM_P1;HPM_P2
2022/04/16 00:02:03;;;;;;;2.83;2.40;;;;;;;11.07;57.19;98218.44;6114226;23;20003;-85
2022/04/16 00:04:28;;;;;;;3.70;2.88;;;;;;;10.75;57.50;98215.25;6140494;23;20008;-83
2022/04/16 00:06:57;;;;;;;3.40;2.50;;;;;;;10.74;57.29;98222.25;6131520;23;20663;-85
2022/04/16 00:09:23;;;;;;;3.88;2.65;;;;;;;10.93;57.14;98215.19;6140664;23;20003;-83
2022/04/16 00:11:49;;;;;;;2.60;2.05;;;;;;;10.90;57.26;98201.81;6116193;23;20785;-85
2022/04/16 00:14:17;;;;;;;3.53;2.10;;;;;;;11.05;56.78;98210.03;6080616;23;20079;-85
2022/04/16 00:16:44;;;;;;;3.45;2.80;;;;;;;10.98;56.66;98224.97;6139497;23;19996;-87
2022/04/16 00:19:11;;;;;;;3.67;2.50;;;;;;;10.92;57.12;98216.22;6115380;23;20067;-85
2022/04/16 00:21:39;;;;;;;4.60;3.17;;;;;;;10.82;57.22;98213.34;6115689;23;20053;-87
2022/04/16 00:24:06;;;;;;;3.75;2.40;;;;;;;10.71;57.73;98225.31;6116236;23;20003;-85
2022/04/16 00:26:31;;;;;;;4.22;3.03;;;;;;;10.78;57.51;98210.38;6081684;23;20073;-84
2022/04/16 00:28:59;;;;;;;3.00;2.42;;;;;;;10.79;57.61;98219.00;6082805;23;20086;-86
2022/04/16 00:31:28;;;;;;;4.90;2.67;;;;;;;10.76;57.56;98211.59;6081453;23;20078;-85
2022/04/16 00:33:54;;;;;;;2.85;2.55;;;;;;;10.79;57.35;98204.16;6114009;23;20709;-84
2022/04/16 00:36:20;;;;;;;3.55;2.50;;;;;;;10.78;57.53;98205.19;6137795;23;20000;-84
2022/04/16 00:38:45;;;;;;;3.47;2.33;;;;;;;10.80;57.55;98200.53;6079623;23;20289;-83
2022/04/16 00:41:13;;;;;;;3.88;2.53;;;;;;;10.79;57.55;98205.97;6114667;23;19992;-84
2022/04/16 00:43:38;;;;;;;3.15;2.50;;;;;;;10.84;57.23;98212.09;6105033;23;20588;-84
2022/04/16 00:46:04;;;;;;;5.95;3.03;;;;;;;10.76;57.44;98196.78;6141579;23;20007;-83
2022/04/16 00:48:29;;;;;;;3.70;2.60;;;;;;;10.64;57.81;98191.53;6138242;23;19996;-83
2022/04/16 00:50:56;;;;;;;3.35;2.85;;;;;;;10.55;57.94;98200.63;6107500;23;20009;-82
2022/04/16 00:53:25;;;;;;;3.95;2.50;;;;;;;10.49;58.13;98194.50;6116831;23;20000;-88
2022/04/16 00:55:51;;;;;;;3.92;3.05;;;;;;;10.39;58.91;98201.25;6139751;23;20016;-85
2022/04/16 00:58:17;;;;;;;4.40;2.97;;;;;;;10.43;58.49;98203.16;6116143;23;20003;-85
2022/04/16 01:00:43;;;;;;;3.03;2.50;;;;;;;10.45;58.52;98208.97;6105608;23;20052;-85
2022/04/16 01:03:08;;;;;;;3.20;2.60;;;;;;;10.46;58.44;98192.31;6114937;23;20644;-85
2022/04/16 01:05:35;;;;;;;5.10;2.20;;;;;;;10.37;58.55;98203.28;6107217;23;20042;-86
2022/04/16 01:08:02;;;;;;;4.22;2.78;;;;;;;10.17;59.51;98204.22;6109308;23;20082;-85
2022/04/16 01:10:33;;;;;;;4.90;3.10;;;;;;;10.17;59.50;98209.44;6083746;23;20000;-83
2022/04/16 01:13:01;;;;;;;4.32;2.88;;;;;;;10.33;59.16;98205.47;6081978;23;20694;-87
2022/04/16 01:15:29;;;;;;;4.43;3.22;;;;;;;10.27;59.43;98199.31;6106990;23;20143;-85
2022/04/16 01:17:55;;;;;;;5.57;2.80;;;;;;;10.35;58.97;98202.66;6083056;23;20023;-85
2022/04/16 01:20:22;;;;;;;3.40;2.78;;;;;;;10.21;59.27;98200.19;6140634;23;20000;-86
2022/04/16 01:22:48;;;;;;;4.15;2.92;;;;;;;10.15;59.76;98206.25;6132095;23;20264;-84
2022/04/16 01:25:14;;;;;;;4.03;2.72;;;;;;;10.27;59.50;98204.53;6140612;23;20061;-84
2022/04/16 01:27:43;;;;;;;3.35;2.40;;;;;;;10.30;59.47;98211.91;6139795;23;20079;-85
2022/04/16 01:30:10;;;;;;;3.40;2.80;;;;;;;10.29;59.38;98209.50;6083823;23;20025;-83
2022/04/16 01:32:36;;;;;;;4.10;2.92;;;;;;;10.28;59.42;98215.72;6114461;23;20007;-85
2022/04/16 01:35:03;;;;;;;4.47;2.80;;;;;;;10.20;59.55;98211.59;6083006;23;20004;-85
2022/04/16 01:37:33;;;;;;;4.68;2.50;;;;;;;10.21;59.29;98210.59;6082833;23;20536;-84
2022/04/16 01:40:00;;;;;;;4.30;3.38;;;;;;;10.16;59.52;98212.25;6141299;23;20004;-83
2022/04/16 01:42:25;;;;;;;5.38;2.90;;;;;;;10.10;59.49;98206.09;6107407;23;20004;-85
2022/04/16 01:44:51;;;;;;;3.75;3.15;;;;;;;10.06;59.94;98213.53;6139958;23;20061;-83
2022/04/16 01:47:17;;;;;;;5.72;3.10;;;;;;;10.08;60.17;98203.72;6105834;23;20000;-85
2022/04/16 01:49:43;;;;;;;4.00;2.75;;;;;;;10.08;59.88;98208.13;6141276;23;20007;-85
2022/04/16 01:52:09;;;;;;;4.57;3.13;;;;;;;10.01;59.99;98212.59;6106413;23;20004;-85
2022/04/16 01:54:35;;;;;;;4.05;2.92;;;;;;;9.99;60.74;98212.81;6117635;23;20561;-83
2022/04/16 01:57:00;;;;;;;5.25;3.40;;;;;;;9.91;60.72;98211.28;6106495;23;20012;-85
2022/04/16 01:59:27;;;;;;;4.00;3.17;;;;;;;9.77;61.24;98206.38;6114007;23;20008;-83
2022/04/16 02:01:55;;;;;;;4.22;3.10;;;;;;;9.87;60.91;98217.91;6085467;23;20058;-85
2022/04/16 02:04:21;;;;;;;3.88;3.40;;;;;;;9.89;60.59;98202.09;6110309;23;20065;-85
2022/04/16 02:06:46;;;;;;;5.72;3.70;;;;;;;9.86;60.78;98200.72;6116514;23;20000;-85
2022/04/16 02:09:11;;;;;;;4.22;3.03;;;;;;;9.83;60.82;98203.72;6141413;23;20114;-87
2022/04/16 02:11:37;;;;;;;4.72;3.60;;;;;;;9.51;61.93;98196.00;6115964;23;20000;-84
2022/04/16 02:14:02;;;;;;;5.45;3.22;;;;;;;9.65;62.00;98201.13;6116856;23;20007;-85
2022/04/16 02:16:28;;;;;;;5.13;3.33;;;;;;;9.62;61.33;98189.31;6141928;23;20031;-83
2022/04/16 02:18:53;;;;;;;4.57;3.58;;;;;;;9.75;61.44;98193.63;6082931;23;20028;-85
2022/04/16 02:21:20;;;;;;;5.35;3.53;;;;;;;9.64;62.10;98204.72;6117328;23;20008;-85
2022/04/16 02:23:45;;;;;;;5.50;3.63;;;;;;;9.73;61.64;98206.84;6084165;23;20062;-84
2022/04/16 02:26:11;;;;;;;4.82;3.50;;;;;;;9.73;61.73;98208.63;6116893;23;20555;-86
2022/04/16 02:28:36;;;;;;;4.43;3.60;;;;;;;9.66;61.62;98200.88;6116805;23;20093;-84
2022/04/16 02:31:01;;;;;;;6.32;3.60;;;;;;;9.68;61.57;98201.47;6085223;23;20015;-83
2022/04/16 02:33:27;;;;;;;6.72;3.80;;;;;;;9.77;61.50;98211.59;6107200;23;20090;-85
2022/04/16 02:35:53;;;;;;;7.18;4.30;;;;;;;9.74;61.91;98205.81;6106372;23;20000;-83
2022/04/16 02:38:18;;;;;;;6.45;4.10;;;;;;;9.74;61.80;98207.63;6081356;23;20000;-85
2022/04/16 02:40:43;;;;;;;5.88;4.18;;;;;;;9.80;61.57;98209.38;6114196;23;20000;-85
2022/04/16 02:43:09;;;;;;;5.07;3.72;;;;;;;9.81;61.49;98210.19;6080708;23;20785;-84
2022/04/16 02:48:18;;;;;;;6.80;3.90;;;;;;;9.78;61.63;98213.19;6130632;23;20024;-84
2022/04/16 02:50:44;;;;;;;5.00;3.70;;;;;;;9.75;61.33;98207.41;6082062;23;20717;-84
2022/04/16 02:53:10;;;;;;;5.47;4.00;;;;;;;9.85;61.39;98206.13;6114557;23;19996;-83
2022/04/16 02:55:35;;;;;;;4.15;3.17;;;;;;;9.81;61.33;98208.34;6160527;23;20178;-84
2022/04/16 02:58:00;;;;;;;5.60;3.60;;;;;;;9.82;61.63;98207.38;6117540;23;20000;-84
2022/04/16 03:00:26;;;;;;;4.70;3.72;;;;;;;9.79;61.28;98207.00;6081440;23;20567;-85
2022/04/16 03:02:52;;;;;;;5.82;3.97;;;;;;;9.78;61.51;98210.59;6115350;23;20061;-83
2022/04/16 03:05:18;;;;;;;5.28;3.60;;;;;;;9.71;61.34;98211.44;6125380;23;20011;-85
2022/04/16 03:07:44;;;;;;;5.13;4.05;;;;;;;9.75;61.68;98211.84;6080469;23;20192;-84
2022/04/16 03:10:10;;;;;;;6.80;3.83;;;;;;;9.74;61.53;98205.03;6113511;23;20007;-83
2022/04/16 03:12:42;;;;;;;5.70;4.20;;;;;;;9.59;61.68;98217.56;6078400;23;20004;-83
2022/04/16 03:17:52;;;;;;;5.47;4.00;;;;;;;9.68;61.52;98211.06;6139600;23;20075;-84
2022/04/16 03:20:18;;;;;;;5.15;3.60;;;;;;;9.70;61.78;98225.47;6112948;23;20043;-84
2022/04/16 03:22:43;;;;;;;5.32;4.07;;;;;;;9.68;61.63;98226.66;6127507;23;20000;-83
2022/04/16 03:25:09;;;;;;;4.93;3.65;;;;;;;9.64;61.55;98217.72;6104745;23;20773;-84
2022/04/16 03:27:36;;;;;;;5.78;3.90;;;;;;;9.64;61.41;98225.50;6136390;23;20000;-83
2022/04/16 03:30:06;;;;;;;6.15;3.50;;;;;;;9.58;61.67;98232.38;6103896;23;20010;-84
2022/04/16 03:32:32;;;;;;;5.43;3.30;;;;;;;9.56;62.04;98227.38;6104395;23;20103;-84
2022/04/16 03:34:57;;;;;;;5.38;4.00;;;;;;;9.49;62.08;98224.03;6114594;23;20460;-84
2022/04/16 03:37:24;;;;;;;5.72;3.75;;;;;;;9.52;62.32;98228.00;6136559;23;20003;-84
2022/04/16 03:39:50;;;;;;;7.07;4.30;;;;;;;9.54;61.62;98226.78;6135955;23;20619;-83
2022/04/16 03:42:18;;;;;;;5.88;4.15;;;;;;;9.59;62.21;98227.94;6160513;23;19992;-83
2022/04/16 03:44:43;;;;;;;6.00;3.70;;;;;;;9.58;62.42;98227.16;6078511;23;20036;-84
2022/04/16 03:47:10;;;;;;;7.50;4.38;;;;;;;9.52;62.15;98228.00;6080390;23;20003;-83
2022/04/16 03:49:36;;;;;;;6.70;3.75;;;;;;;9.52;62.40;98231.38;6079399;23;20091;-85
2022/04/16 03:52:02;;;;;;;6.78;4.35;;;;;;;9.48;62.76;98227.63;6138355;23;20004;-83
2022/04/16 04:00:03;;;;;;;6.90;4.90;;;;;;;9.44;63.02;98226.47;6106658;23;20032;-85
2022/04/16 04:02:30;;;;;;;5.93;4.43;;;;;;;9.45;62.82;98224.66;6116089;23;20004;-84
2022/04/16 04:04:57;;;;;;;8.65;5.38;;;;;;;9.37;62.99;98225.69;6080272;23;20007;-86
2022/04/16 04:07:23;;;;;;;7.13;4.85;;;;;;;9.47;62.78;98231.22;6080577;23;20105;-84
2022/04/16 04:09:49;;;;;;;9.05;5.15;;;;;;;9.49;62.64;98233.59;6140798;23;20081;-84
2022/04/16 04:12:15;;;;;;;8.68;5.20;;;;;;;9.50;62.84;98236.00;6137267;23;20741;-85
2022/04/16 04:14:45;;;;;;;8.05;4.97;;;;;;;9.44;63.19;98236.88;6138097;23;20023;-86
2022/04/16 04:17:10;;;;;;;9.52;4.90;;;;;;;9.41;63.16;98232.06;6139408;23;20342;-83
2022/04/16 04:19:38;;;;;;;7.65;4.30;;;;;;;9.34;63.45;98228.72;6104147;23;20024;-83
2022/04/16 04:22:04;;;;;;;6.07;4.60;;;;;;;9.46;63.04;98240.03;6080764;23;20747;-84
2022/04/16 04:24:30;;;;;;;6.45;4.85;;;;;;;9.50;63.00;98237.81;6112793;23;20696;-83
2022/04/16 04:27:00;;;;;;;8.57;4.75;;;;;;;9.40;62.97;98234.88;6135693;23;20015;-84
2022/04/16 04:29:26;;;;;;;7.25;4.95;;;;;;;9.47;63.24;98251.22;6139550;23;20004;-84
2022/04/16 04:31:52;;;;;;;9.27;5.70;;;;;;;9.42;63.39;98254.44;6135744;23;20134;-84
2022/04/16 04:34:17;;;;;;;7.63;5.65;;;;;;;9.36;63.90;98256.09;6081437;23;20023;-84
2022/04/16 04:36:43;;;;;;;8.10;5.53;;;;;;;9.40;63.75;98247.88;6081344;23;19996;-84
2022/04/16 04:39:08;;;;;;;8.88;6.03;;;;;;;9.29;64.03;98244.94;6082258;23;20778;-82
2022/04/16 04:41:33;;;;;;;9.65;6.28;;;;;;;9.40;63.97;98251.28;6114147;23;20035;-86
2022/04/16 04:43:59;;;;;;;7.80;6.20;;;;;;;9.40;64.10;98245.28;6115047;23;19996;-84
2022/04/16 04:46:24;;;;;;;8.73;5.72;;;;;;;9.39;63.92;98249.69;6105113;23;20073;-84
2022/04/16 04:48:50;;;;;;;9.60;5.65;;;;;;;9.36;64.29;98255.31;6113680;23;20016;-85
2022/04/16 04:51:15;;;;;;;8.13;5.47;;;;;;;9.44;63.96;98246.44;6080631;23;19996;-84
2022/04/16 04:53:41;;;;;;;8.18;6.00;;;;;;;9.48;63.98;98252.84;6105367;23;20089;-84
2022/04/16 04:56:06;;;;;;;9.02;6.03;;;;;;;9.46;64.02;98245.25;6080384;23;20008;-83
2022/04/16 04:58:31;;;;;;;9.82;6.10;;;;;;;9.48;63.78;98255.44;6138904;23;20071;-84
2022/04/16 05:00:57;;;;;;;12.18;6.80;;;;;;;9.28;64.90;98243.34;6137665;23;20008;-83
2022/04/16 05:03:23;;;;;;;10.93;6.90;;;;;;;9.43;64.63;98258.66;6139993;23;20011;-83
2022/04/16 05:05:49;;;;;;;10.75;6.28;;;;;;;9.46;64.38;98266.03;6130063;23;20016;-84
2022/04/16 05:08:14;;;;;;;9.95;6.82;;;;;;;9.48;64.33;98261.41;6079366;23;20162;-83
2022/04/16 05:10:39;;;;;;;10.68;6.20;;;;;;;9.44;64.42;98265.47;6113633;23;20008;-83
2022/04/16 05:13:05;;;;;;;10.82;6.90;;;;;;;9.47;64.73;98265.00;6104978;23;20028;-85
2022/04/16 05:15:30;;;;;;;9.68;6.57;;;;;;;9.44;64.80;98262.03;6105360;23;20448;-84
2022/04/16 05:17:56;;;;;;;12.32;6.70;;;;;;;9.49;64.66;98263.03;6080657;23;20008;-83
2022/04/16 05:20:21;;;;;;;13.00;7.15;;;;;;;9.55;64.52;98256.97;6137434;23;20070;-84
2022/04/16 05:22:47;;;;;;;10.48;6.60;;;;;;;9.51;64.65;98258.41;6139210;23;20097;-83
2022/04/16 05:25:13;;;;;;;8.25;6.05;;;;;;;9.44;65.21;98260.25;6142103;23;20023;-86
2022/04/16 05:27:38;;;;;;;9.98;6.38;;;;;;;9.69;64.91;98264.69;6106013;23;20015;-86
2022/04/16 05:30:12;;;;;;;9.45;6.75;;;;;;;9.63;64.92;98263.72;6116473;23;20057;-84
2022/04/16 05:32:42;;;;;;;11.35;6.97;;;;;;;9.77;64.66;98266.22;6142982;23;20591;-86
2022/04/16 05:35:10;;;;;;;9.90;6.28;;;;;;;9.81;64.54;98268.19;6084240;23;20696;-86
2022/04/16 05:37:36;;;;;;;11.02;7.28;;;;;;;9.81;65.08;98277.81;6083717;23;20003;-84
2022/04/16 05:40:03;;;;;;;12.38;7.28;;;;;;;9.84;64.73;98272.97;6083466;23;20260;-86
2022/04/16 05:42:28;;;;;;;9.65;6.55;;;;;;;9.98;64.79;98280.69;6084379;23;20015;-86
2022/04/16 05:44:59;;;;;;;11.43;6.88;;;;;;;9.72;65.03;98279.88;6084054;23;20012;-84
2022/04/16 05:47:24;;;;;;;9.38;6.18;;;;;;;10.06;64.65;98285.63;6141476;23;20008;-83
2022/04/16 05:49:50;;;;;;;11.07;7.05;;;;;;;10.20;63.93;98289.69;6082480;23;20002;-84
2022/04/16 05:52:18;;;;;;;10.05;6.75;;;;;;;10.09;64.18;98290.38;6140886;23;20786;-84
2022/04/16 05:54:43;;;;;;;11.60;7.20;;;;;;;10.33;64.21;98290.59;6115498;23;20205;-87
2022/04/16 05:57:09;;;;;;;11.43;7.53;;;;;;;10.31;64.05;98293.38;6108582;23;20004;-87
2022/04/16 05:59:35;;;;;;;10.52;6.78;;;;;;;10.39;63.54;98290.53;6117452;23;20230;-84
2022/04/16 06:02:00;;;;;;;11.38;7.80;;;;;;;10.40;63.87;98302.56;6109395;23;20001;-84
2022/04/16 06:04:26;;;;;;;11.02;6.85;;;;;;;10.58;63.71;98300.97;6134004;23;20000;-83
2022/04/16 06:06:51;;;;;;;10.73;6.18;;;;;;;10.68;63.08;98304.66;6117119;23;20000;-87
2022/04/16 06:09:16;;;;;;;11.60;6.60;;;;;;;10.54;63.66;98302.41;6117945;23;20653;-86
2022/04/16 06:11:42;;;;;;;11.23;6.95;;;;;;;10.92;62.60;98304.81;6142172;23;20075;-84
2022/04/16 06:14:08;;;;;;;11.43;6.85;;;;;;;11.05;62.42;98298.63;6084823;23;20595;-86
2022/04/16 06:16:33;;;;;;;11.65;7.05;;;;;;;11.04;62.01;98307.47;6144707;23;20057;-84
2022/04/16 06:18:59;;;;;;;8.65;5.90;;;;;;;11.12;61.80;98308.97;6142130;23;20011;-85
2022/04/16 06:21:24;;;;;;;10.25;6.60;;;;;;;10.92;62.03;98317.06;6108271;23;20630;-85
2022/04/16 06:23:51;;;;;;;9.13;6.20;;;;;;;11.06;61.54;98311.44;6082278;23;20000;-85
2022/04/16 06:26:17;;;;;;;9.25;6.00;;;;;;;11.15;61.92;98311.94;6083918;23;20647;-84
2022/04/16 06:28:42;;;;;;;10.48;6.13;;;;;;;11.12;61.75;98309.81;6143239;23;20146;-86
2022/04/16 06:31:08;;;;;;;9.52;5.90;;;;;;;11.06;62.33;98311.44;6083110;23;20007;-85
2022/04/16 06:33:33;;;;;;;10.20;6.82;;;;;;;11.21;61.62;98315.50;6107684;23;20070;-84
2022/04/16 06:35:59;;;;;;;9.48;6.75;;;;;;;11.46;61.71;98317.97;6140990;23;20067;-86
2022/04/16 06:38:24;;;;;;;10.52;6.38;;;;;;;11.12;61.78;98324.63;6116925;23;20004;-85
2022/04/16 06:40:49;;;;;;;9.15;6.00;;;;;;;11.08;61.81;98320.88;6084835;23;20011;-86
2022/04/16 06:43:15;;;;;;;10.32;6.30;;;;;;;11.25;61.71;98338.28;6116632;23;20062;-84
2022/04/16 06:45:40;;;;;;;8.30;5.63;;;;;;;11.34;61.63;98324.94;6083414;23;20574;-84
2022/04/16 06:48:06;;;;;;;10.52;6.57;;;;;;;11.58;60.62;98333.66;6138796;23;20004;-86
2022/04/16 06:50:31;;;;;;;9.43;5.38;;;;;;;11.52;60.70;98331.94;6085274;23;19996;-86
2022/04/16 06:52:56;;;;;;;8.10;5.18;;;;;;;11.66;60.27;98333.34;6116219;23;19997;-86
2022/04/16 06:55:22;;;;;;;7.68;5.68;;;;;;;11.91;60.18;98329.81;6106160;23;20680;-83
2022/04/16 06:57:47;;;;;;;7.90;5.43;;;;;;;11.84;59.51;98331.69;6083639;23;20264;-85
2022/04/16 07:00:13;;;;;;;7.60;5.10;;;;;;;11.71;59.63;98341.31;6112799;23;20000;-87
2022/04/16 07:02:39;;;;;;;8.52;5.50;;;;;;;11.52;60.74;98345.00;6137628;23;20635;-86
2022/04/16 07:05:05;;;;;;;7.63;5.40;;;;;;;11.52;60.45;98321.53;6142708;23;20030;-88
2022/04/16 07:07:31;;;;;;;8.02;4.80;;;;;;;11.47;60.33;98330.00;6085367;23;20725;-86
2022/04/16 07:09:57;;;;;;;6.82;4.78;;;;;;;11.55;60.27;98334.09;6118655;23;20074;-85
2022/04/16 07:12:22;;;;;;;7.35;5.20;;;;;;;11.99;59.45;98335.50;6140301;23;20004;-84
2022/04/16 07:14:48;;;;;;;7.40;4.82;;;;;;;12.03;59.31;98333.25;6142731;23;20081;-84
2022/04/16 07:17:13;;;;;;;8.02;4.00;;;;;;;11.62;60.18;98340.03;6118504;23;19996;-86
2022/04/16 07:19:39;;;;;;;6.63;4.50;;;;;;;11.72;59.98;98337.69;6132471;23;20166;-85
2022/04/16 07:22:04;;;;;;;6.07;4.25;;;;;;;11.93;59.47;98344.22;6108441;23;19992;-84
2022/04/16 07:24:30;;;;;;;7.57;4.65;;;;;;;11.80;59.33;98347.78;6108460;23;20079;-86
2022/04/16 07:26:56;;;;;;;5.22;4.00;;;;;;;12.05;59.08;98343.47;6082947;23;20261;-83
2022/04/16 07:29:22;;;;;;;6.93;4.38;;;;;;;12.20;58.47;98337.78;6117160;23;20000;-83
2022/04/16 07:31:47;;;;;;;5.65;3.70;;;;;;;12.61;57.62;98341.31;6107637;23;20004;-84
2022/04/16 07:34:13;;;;;;;5.75;4.30;;;;;;;12.79;57.45;98346.41;6117144;23;20194;-85
2022/04/16 07:36:40;;;;;;;6.78;3.67;;;;;;;12.32;57.22;98349.84;6118686;23;20000;-86
2022/04/16 07:39:05;;;;;;;6.40;4.00;;;;;;;12.22;57.85;98340.97;6082553;23;20004;-84
2022/04/16 07:41:31;;;;;;;5.85;4.03;;;;;;;12.08;58.33;98359.47;6133176;23;20117;-87
2022/04/16 07:44:02;;;;;;;4.90;3.42;;;;;;;12.33;57.37;98337.59;6117656;23;20795;-82
2022/04/16 07:46:28;;;;;;;6.05;4.13;;;;;;;12.51;57.69;98349.75;6085259;23;20660;-87
2022/04/16 07:48:54;;;;;;;5.38;3.97;;;;;;;12.99;56.59;98353.09;6119476;23;20007;-84
2022/04/16 07:51:19;;;;;;;5.97;4.15;;;;;;;13.11;56.34;98351.25;6115003;23;20220;-85
2022/04/16 07:53:44;;;;;;;5.13;3.42;;;;;;;12.96;56.26;98349.13;6106490;23;20083;-84
2022/04/16 07:56:10;;;;;;;5.45;3.63;;;;;;;12.67;56.50;98350.88;6112766;23;20658;-88
2022/04/16 07:58:35;;;;;;;4.55;3.45;;;;;;;12.64;56.82;98356.56;6111798;23;20004;-86
2022/04/16 08:01:00;;;;;;;4.45;3.53;;;;;;;12.47;56.37;98356.44;6167254;23;20024;-87
2022/04/16 08:03:26;;;;;;;4.80;4.10;;;;;;;12.65;56.04;98355.53;6107902;23;20691;-85
2022/04/16 08:05:51;;;;;;;4.55;3.08;;;;;;;12.84;55.29;98350.97;6112146;23;20000;-85
2022/04/16 08:08:17;;;;;;;4.53;3.15;;;;;;;12.49;55.73;98352.59;6082759;23;20659;-83
2022/04/16 08:10:42;;;;;;;4.20;2.78;;;;;;;12.99;55.40;98358.31;6109258;23;20087;-84
2022/04/16 08:13:07;;;;;;;4.30;3.30;;;;;;;13.03;54.37;98347.19;6109234;23;20058;-85
2022/04/16 08:15:34;;;;;;;4.05;2.70;;;;;;;12.87;54.60;98356.53;6082376;23;20209;-86
2022/04/16 08:18:00;;;;;;;3.97;2.50;;;;;;;13.33;53.84;98371.56;6079936;23;20028;-85
2022/04/16 08:20:25;;;;;;;3.83;2.85;;;;;;;13.11;54.15;98369.56;6105350;23;20011;-85
2022/04/16 08:22:52;;;;;;;3.50;2.55;;;;;;;13.16;53.21;98368.84;6106911;23;19996;-84
2022/04/16 08:27:49;;;;;;;4.78;2.90;;;;;;;13.09;52.93;98376.81;6141243;23;20016;-85
2022/04/16 08:30:16;;;;;;;3.78;2.78;;;;;;;13.00;53.30;98368.53;6137981;23;20076;-83
2022/04/16 08:32:42;;;;;;;3.45;2.30;;;;;;;13.36;53.11;98379.75;6131178;23;20007;-85
2022/04/16 08:35:13;;;;;;;3.50;2.33;;;;;;;13.25;51.35;98373.50;6140793;23;20638;-82
2022/04/16 08:37:40;;;;;;;2.60;2.17;;;;;;;13.23;51.45;98372.94;6106458;23;20821;-85
2022/04/16 08:40:06;;;;;;;2.85;2.00;;;;;;;13.15;51.79;98378.53;6080521;23;20224;-84
2022/04/16 08:42:37;;;;;;;2.75;1.80;;;;;;;13.23;51.37;98378.19;6087106;23;20180;-84
2022/04/16 08:45:04;;;;;;;2.20;1.60;;;;;;;13.22;50.55;98379.19;6062921;23;20093;-82
2022/04/16 08:47:30;;;;;;;2.80;1.63;;;;;;;13.21;50.88;98376.81;6086831;23;20170;-83
2022/04/16 08:49:57;;;;;;;2.05;1.75;;;;;;;13.14;50.65;98374.31;6087180;23;20252;-85
2022/04/16 08:52:24;;;;;;;2.50;2.10;;;;;;;13.24;50.56;98374.50;6062099;23;20089;-85
2022/04/16 08:54:49;;;;;;;2.55;1.52;;;;;;;13.25;50.42;98357.81;6122090;23;20176;-83
2022/04/16 08:57:14;;;;;;;1.70;1.20;;;;;;;12.97;50.11;98373.44;6065697;23;20153;-83
2022/04/16 08:59:48;;;;;;;1.63;1.17;;;;;;;13.01;49.02;98377.19;6061428;23;20649;-84
2022/04/16 09:02:14;;;;;;;2.15;1.83;;;;;;;12.99;48.86;98364.34;6097483;23;20176;-83
2022/04/16 09:04:39;;;;;;;1.63;1.42;;;;;;;13.29;47.84;98379.06;6088119;23;20171;-83
2022/04/16 09:07:05;;;;;;;1.48;0.90;;;;;;;13.19;47.45;98373.63;6064824;23;20171;-84
2022/04/16 09:09:30;;;;;;;2.50;1.25;;;;;;;13.48;47.49;98382.31;6100108;23;20176;-84
2022/04/16 09:11:56;;;;;;;1.15;1.05;;;;;;;13.59;46.91;98378.88;6124622;23;20176;-84
2022/04/16 09:14:42;;;;;;;1.65;0.95;;;;;;;13.86;46.00;98380.91;6114548;23;20232;-82
2022/04/16 09:17:08;;;;;;;1.17;0.85;;;;;;;14.26;44.91;98371.34;6115069;23;20701;-85
2022/04/16 09:19:34;;;;;;;1.15;0.93;;;;;;;14.39;45.20;98376.25;6124912;23;20170;-84
2022/04/16 09:21:59;;;;;;;1.05;0.70;;;;;;;14.76;44.91;98371.31;6088800;23;20597;-85
2022/04/16 09:24:25;;;;;;;1.00;0.88;;;;;;;14.70;45.56;98384.59;6100781;23;20532;-83
2022/04/16 09:26:51;;;;;;;1.48;0.80;;;;;;;13.75;45.68;98373.94;6064120;23;20674;-85
2022/04/16 09:29:16;;;;;;;0.75;0.63;;;;;;;13.71;45.93;98373.59;6102035;23;20130;-84
2022/04/16 09:31:45;;;;;;;1.35;0.70;;;;;;;13.52;45.75;98388.69;6091125;23;20602;-85
2022/04/16 09:34:21;;;;;;;0.93;0.80;;;;;;;13.59;46.30;98378.88;6089396;23;20621;-85
2022/04/16 09:36:47;;;;;;;1.40;0.77;;;;;;;14.05;45.70;98389.34;6100354;23;20298;-84
2022/04/16 09:39:13;;;;;;;1.52;0.73;;;;;;;14.08;45.21;98388.09;6064948;23;20171;-84
2022/04/16 09:41:46;;;;;;;1.40;0.88;;;;;;;14.10;45.51;98388.66;6099769;23;20137;-85
2022/04/16 09:44:18;;;;;;;2.22;0.60;;;;;;;13.72;45.14;98397.94;6127583;23;20210;-85
2022/04/16 09:46:47;;;;;;;0.68;0.55;;;;;;;13.98;44.69;98397.38;6157611;23;20084;-83
2022/04/16 09:49:14;;;;;;;2.35;0.85;;;;;;;14.71;44.08;98402.72;6088629;23;20212;-84
2022/04/16 09:51:45;;;;;;;1.52;0.75;;;;;;;15.06;42.77;98406.06;6123074;23;20589;-83
2022/04/16 09:54:11;;;;;;;0.90;0.77;;;;;;;15.42;41.56;98385.50;6088176;23;20264;-85
2022/04/16 09:56:38;;;;;;;2.00;1.00;;;;;;;14.84;42.28;98390.28;6114960;23;20090;-80
2022/04/16 09:59:06;;;;;;;1.70;0.80;;;;;;;14.27;44.01;98388.66;6122861;23;20253;-83
2022/04/16 10:01:33;;;;;;;1.20;0.98;;;;;;;14.56;43.74;98387.53;6098551;23;20139;-84
2022/04/16 10:04:00;;;;;;;1.13;0.98;;;;;;;14.21;44.90;98385.16;6104389;23;20266;-84
2022/04/16 10:06:28;;;;;;;1.25;1.08;;;;;;;13.86;44.87;98383.53;6123340;23;20741;-83
2022/04/16 10:08:56;;;;;;;1.58;0.90;;;;;;;14.20;44.73;98368.63;6089605;23;20172;-85
2022/04/16 10:14:22;;;;;;;0.90;0.77;;;;;;;15.36;41.97;98374.94;6094219;23;20218;-83
2022/04/16 10:17:02;;;;;;;1.27;0.80;;;;;;;14.46;42.91;98382.13;6066431;23;20168;-84
2022/04/16 10:19:37;;;;;;;1.40;0.82;;;;;;;14.02;44.15;98376.75;6122391;23;20135;-80
2022/04/16 10:22:02;;;;;;;;;;;;;;;13.78;44.10;98389.16;6088027;23;20046;-81
2022/04/16 10:24:28;;;;;;;0.60;0.55;;;;;;;14.04;43.35;98385.16;6088395;23;20067;-82
2022/04/16 10:27:03;;;;;;;1.17;1.00;;;;;;;14.42;43.53;98397.53;6097656;23;20818;-83
2022/04/16 10:29:34;;;;;;;0.95;0.60;;;;;;;15.07;43.77;98392.72;6097649;23;20628;-83
2022/04/16 10:31:59;;;;;;;1.00;0.77;;;;;;;16.19;41.14;98388.91;6097683;23;20614;-83
2022/04/16 10:34:29;;;;;;;0.75;0.55;;;;;;;16.64;39.56;98398.97;6087145;23;20145;-81
2022/04/16 10:36:55;;;;;;;1.10;0.50;;;;;;;16.38;39.43;98389.31;6098577;23;20234;-84
2022/04/16 10:39:27;;;;;;;0.73;0.40;;;;;;;15.99;39.71;98402.63;6097849;23;20617;-83
2022/04/16 10:41:58;;;;;;;1.17;0.77;;;;;;;16.59;39.50;98391.03;6062127;23;20191;-82
2022/04/16 10:44:24;;;;;;;1.35;0.60;;;;;;;17.00;37.42;98393.16;6097083;23;20258;-82
2022/04/16 10:46:51;;;;;;;0.70;0.70;;;;;;;15.81;39.69;98401.94;6122932;23;20228;-82
2022/04/16 10:49:22;;;;;;;0.90;0.60;;;;;;;16.10;39.29;98378.06;6125427;23;20169;-85
2022/04/16 10:51:50;;;;;;;0.60;0.60;;;;;;;16.42;39.02;98380.66;6097137;23;20156;-85
2022/04/16 10:54:28;;;;;;;0.70;0.70;;;;;;;16.12;38.69;98386.47;6063884;23;20401;-84
2022/04/16 10:56:54;;;;;;;1.05;0.90;;;;;;;16.49;38.26;98380.44;6087361;23;20702;-85
2022/04/16 10:59:38;;;;;;;0.75;0.73;;;;;;;15.80;39.37;98387.25;6124123;23;20727;-83
2022/04/16 11:02:15;;;;;;;1.98;0.60;;;;;;;16.08;40.22;98388.81;6097851;23;20579;-82
2022/04/16 11:04:40;;;;;;;3.45;0.80;;;;;;;16.50;39.18;98391.75;6122584;23;20167;-82
2022/04/16 11:07:08;;;;;;;1.50;1.10;;;;;;;15.99;39.49;98392.13;6123377;23;20378;-82
2022/04/16 11:09:34;;;;;;;1.20;1.10;;;;;;;16.22;40.92;98388.41;6124311;23;20259;-83
2022/04/16 11:12:04;;;;;;;1.45;1.23;;;;;;;15.73;40.59;98402.41;6062923;23;20145;-82
2022/04/16 11:14:29;;;;;;;1.10;0.90;;;;;;;16.01;40.58;98390.84;6088310;23;20635;-84
2022/04/16 11:16:55;;;;;;;2.05;1.40;;;;;;;15.81;40.38;98380.94;6099027;23;20172;-83
2022/04/16 11:19:20;;;;;;;1.17;1.08;;;;;;;16.51;41.04;98383.63;6096374;23;20187;-85
2022/04/16 11:21:45;;;;;;;1.38;1.27;;;;;;;16.15;40.27;98385.97;6120445;23;20566;-84
2022/04/16 11:24:11;;;;;;;1.60;1.30;;;;;;;16.61;40.21;98406.56;6098638;23;20167;-82
2022/04/16 11:34:55;;;;;;;1.58;1.48;;;;;;;16.66;39.62;98404.75;6126163;23;20250;-83
2022/04/16 11:37:20;;;;;;;1.13;1.00;;;;;;;16.67;39.04;98395.81;6149154;23;20293;-82
2022/04/16 11:39:46;;;;;;;1.95;1.33;;;;;;;15.93;40.22;98395.78;6121841;23;20669;-82
2022/04/16 11:42:12;;;;;;;1.92;1.40;;;;;;;16.14;40.94;98392.25;6111040;23;20260;-83
2022/04/16 11:44:43;;;;;;;2.20;1.73;;;;;;;15.61;40.42;98393.84;6122360;23;20309;-83
2022/04/16 11:47:12;;;;;;;1.63;1.48;;;;;;;15.12;42.07;98400.63;6097688;23;20785;-82
2022/04/16 11:49:40;;;;;;;2.20;1.50;;;;;;;15.23;42.30;98396.31;6063763;23;20149;-83
2022/04/16 11:52:06;;;;;;;1.95;1.40;;;;;;;15.70;41.86;98397.63;6096912;23;20321;-82
2022/04/16 11:54:32;;;;;;;1.70;1.60;;;;;;;16.44;40.75;98388.31;6112730;23;20135;-84
2022/04/16 11:56:58;;;;;;;2.78;1.80;;;;;;;16.91;39.28;98394.66;6087345;23;20582;-81
2022/04/16 12:03:05;;;;;;;2.05;1.50;;;;;;;16.75;38.98;98370.88;6161916;22;20234;-82